Seattle, Washington
Traffic Map
Current Weather Conditions
Seattle, Washington
Scattered Clouds
Scattered Clouds
70°
Feels Like: 70°
Wind Chill: 70° Ceiling: Unl
Heat Index: 70° Visibility: 10mi
Dew Point: 51° Wind: 5mph
Humidity: 51% Direction: ° ()
Pressure: 30.04in Gusts: 0mph
Raw Report DataKBFI 242353Z VRB04KT 10SM FEW040 SCT250 21/11 A3004 RMK AO2 SLP171 T02110106 10211 20144 58011
Traffic Incident Summary
Active as of:
Severity:
Category:
InformationThere was an issue retrieving the traffic information for this location. Please try a different location or try again shortly.
Advertisements